Time;durP1;ratioP1;P1;durP2;ratioP2;P2;SDS_P1;SDS_P2;PMS_P1;PMS_P2;Temp;Humidity;BMP_temperature;BMP_pressure;BME280_temperature;BME280_humidity;BME280_pressure;Samples;Min_cycle;Max_cycle;Signal;HPM_P1;HPM_P2
2022/07/24 00:02:34;;;;;;;2.75;2.55;;;;;;;18.15;58.45;100388.22;10424804;28;20037;-82
2022/07/24 00:07:36;;;;;;;3.00;2.80;;;;;;;18.06;58.01;100390.53;10409076;28;20054;-82
2022/07/24 00:12:38;;;;;;;2.30;2.10;;;;;;;17.94;58.20;100380.63;10425808;28;20045;-82
2022/07/24 00:17:40;;;;;;;2.60;2.40;;;;;;;17.78;58.95;100380.59;10410189;28;20521;-82
2022/07/24 00:22:42;;;;;;;2.17;1.95;;;;;;;17.68;58.79;100384.69;10395113;28;20048;-82
2022/07/24 00:27:43;;;;;;;3.83;2.08;;;;;;;17.86;57.68;100387.22;10521560;22;20457;-82
2022/07/24 00:32:45;;;;;;;4.57;1.90;;;;;;;17.92;57.23;100388.66;10549598;28;20602;-81
2022/07/24 00:37:47;;;;;;;2.10;1.80;;;;;;;17.93;57.11;100397.50;10549164;28;20097;-82
2022/07/24 00:42:48;;;;;;;3.58;1.85;;;;;;;17.63;58.49;100391.13;10548023;28;20047;-82
2022/07/24 00:47:51;;;;;;;3.75;2.35;;;;;;;17.57;58.50;100394.09;10552738;28;20066;-82
2022/07/24 00:52:53;;;;;;;2.03;1.92;;;;;;;17.36;59.50;100405.94;10529074;28;20044;-82
2022/07/24 00:57:55;;;;;;;1.83;1.73;;;;;;;17.33;59.56;100411.41;10547702;28;20044;-81
2022/07/24 01:02:57;;;;;;;2.38;2.17;;;;;;;17.48;58.97;100405.25;10528774;28;20036;-81
2022/07/24 01:08:00;;;;;;;2.30;2.10;;;;;;;17.29;59.61;100412.50;10527437;28;20101;-82
2022/07/24 01:13:02;;;;;;;2.40;2.20;;;;;;;17.13;60.14;100409.78;10551806;28;20036;-81
2022/07/24 01:18:03;;;;;;;2.45;2.13;;;;;;;16.95;60.73;100413.41;10570177;28;20036;-82
2022/07/24 01:23:05;;;;;;;2.78;2.03;;;;;;;17.04;60.16;100421.75;10558252;28;20044;-82
2022/07/24 01:28:07;;;;;;;2.60;2.40;;;;;;;16.90;60.60;100419.81;10522950;28;20074;-82
2022/07/24 01:33:09;;;;;;;2.67;2.47;;;;;;;16.99;60.29;100414.97;10558439;28;20040;-82
2022/07/24 01:38:12;;;;;;;2.17;1.98;;;;;;;16.87;60.36;100417.34;10544036;28;20130;-82
2022/07/24 01:43:14;;;;;;;2.28;2.00;;;;;;;16.73;60.98;100424.28;10580180;28;20100;-81
2022/07/24 01:48:16;;;;;;;2.38;2.13;;;;;;;16.65;61.07;100424.66;10593428;28;20052;-80
2022/07/24 01:53:19;;;;;;;2.58;2.35;;;;;;;16.69;61.28;100426.22;10595829;28;20040;-82
2022/07/24 01:58:20;;;;;;;3.58;2.17;;;;;;;16.66;61.39;100429.03;10593487;28;20051;-82
2022/07/24 02:03:23;;;;;;;2.75;1.90;;;;;;;16.44;62.44;100436.34;10562426;28;20498;-82
2022/07/24 02:08:25;;;;;;;2.25;2.13;;;;;;;16.17;63.68;100435.91;10532922;28;20070;-81
2022/07/24 02:13:27;;;;;;;2.22;2.00;;;;;;;16.06;64.22;100439.06;10530866;28;20044;-82
2022/07/24 02:18:30;;;;;;;2.58;2.38;;;;;;;15.91;65.03;100434.50;10530452;28;20040;-81
2022/07/24 02:23:32;;;;;;;2.55;2.08;;;;;;;15.85;65.25;100443.59;10548167;28;20032;-81
2022/07/24 02:28:33;;;;;;;2.42;2.22;;;;;;;15.83;64.98;100440.16;10550357;28;20044;-81
2022/07/24 02:33:35;;;;;;;2.67;2.30;;;;;;;15.74;65.54;100448.53;10551349;28;20093;-81
2022/07/24 02:38:37;;;;;;;3.67;2.70;;;;;;;15.64;65.74;100451.63;10550933;28;20109;-80
2022/07/24 02:43:38;;;;;;;3.35;3.13;;;;;;;15.57;66.26;100455.44;10550993;28;20489;-81
2022/07/24 02:48:40;;;;;;;3.63;3.40;;;;;;;15.45;67.18;100460.41;10536178;28;20044;-81
2022/07/24 02:53:41;;;;;;;3.00;2.80;;;;;;;15.35;67.69;100449.38;10533475;28;20044;-81
2022/07/24 02:58:43;;;;;;;4.03;3.60;;;;;;;15.34;68.00;100458.28;10532574;28;20097;-81
2022/07/24 03:03:44;;;;;;;3.85;3.55;;;;;;;15.49;67.61;100462.00;10551048;28;20105;-80
2022/07/24 03:08:46;;;;;;;3.47;3.22;;;;;;;15.41;68.22;100457.06;10550640;28;20056;-80
2022/07/24 03:13:48;;;;;;;3.95;3.75;;;;;;;15.20;68.96;100461.53;10533596;28;20078;-81
2022/07/24 03:18:49;;;;;;;4.07;3.75;;;;;;;15.13;69.14;100460.06;10550937;28;20069;-81
2022/07/24 03:23:51;;;;;;;4.30;4.00;;;;;;;15.20;69.05;100466.81;10551692;28;20035;-81
2022/07/24 03:28:52;;;;;;;4.10;3.80;;;;;;;15.26;69.00;100466.53;10550398;28;20051;-81
2022/07/24 03:33:54;;;;;;;3.20;3.00;;;;;;;15.16;69.23;100454.66;10549982;28;20043;-81
2022/07/24 03:38:55;;;;;;;4.10;3.80;;;;;;;15.32;68.87;100466.28;10530768;28;20056;-80
2022/07/24 03:43:57;;;;;;;4.57;4.18;;;;;;;15.21;69.79;100463.25;10549518;28;20490;-81
2022/07/24 03:48:59;;;;;;;4.07;3.78;;;;;;;15.19;69.75;100470.41;10550673;28;20048;-81
2022/07/24 03:54:03;;;;;;;4.38;4.07;;;;;;;15.36;69.09;100473.19;10547815;28;20040;-81
2022/07/24 03:59:05;;;;;;;5.38;5.05;;;;;;;15.57;68.27;100466.03;10547235;28;20048;-80
2022/07/24 04:04:07;;;;;;;6.07;5.57;;;;;;;15.30;69.63;100468.13;10550277;28;20032;-80
2022/07/24 04:09:09;;;;;;;5.90;5.47;;;;;;;15.11;70.59;100476.03;10530659;28;20082;-80
2022/07/24 04:14:11;;;;;;;6.60;6.15;;;;;;;15.17;70.36;100471.41;10548282;28;20109;-80
2022/07/24 04:19:13;;;;;;;6.00;5.50;;;;;;;15.37;69.85;100460.78;10547629;28;20044;-81
2022/07/24 04:24:15;;;;;;;5.72;5.32;;;;;;;15.38;70.07;100475.75;10531019;28;20066;-81
2022/07/24 04:29:17;;;;;;;5.57;5.07;;;;;;;15.59;68.53;100472.13;10554837;28;20044;-81
2022/07/24 04:34:23;;;;;;;5.18;4.78;;;;;;;15.88;67.59;100470.81;10559877;28;20040;-82
2022/07/24 04:39:24;;;;;;;5.97;5.47;;;;;;;16.09;66.39;100476.03;10535365;28;20052;-82
2022/07/24 04:44:26;;;;;;;5.90;5.40;;;;;;;15.86;67.65;100482.44;10535306;28;20513;-81
2022/07/24 04:49:28;;;;;;;5.78;5.28;;;;;;;15.84;67.92;100476.31;10543889;28;20050;-81
2022/07/24 04:54:30;;;;;;;6.05;5.65;;;;;;;15.88;68.36;100469.94;10526066;28;20131;-81
2022/07/24 04:59:32;;;;;;;6.32;5.93;;;;;;;15.94;67.77;100477.63;10560033;28;20048;-81
2022/07/24 05:04:34;;;;;;;6.35;5.85;;;;;;;16.24;66.61;100477.09;10559150;28;20105;-82
2022/07/24 05:09:36;;;;;;;6.78;6.30;;;;;;;16.23;66.74;100480.69;10540079;28;20051;-81
2022/07/24 05:14:37;;;;;;;5.95;5.47;;;;;;;16.42;66.43;100486.81;10555665;28;20214;-81
2022/07/24 05:19:39;;;;;;;6.00;5.50;;;;;;;16.83;63.95;100484.81;10555924;28;20061;-81
2022/07/24 05:24:40;;;;;;;5.90;5.40;;;;;;;16.79;64.52;100479.75;10556756;28;20052;-81
2022/07/24 05:29:42;;;;;;;5.90;5.50;;;;;;;17.02;64.19;100486.53;10561748;28;20048;-80
2022/07/24 05:34:44;;;;;;;6.20;5.80;;;;;;;17.22;63.44;100477.50;10583806;28;20036;-81
2022/07/24 05:39:45;;;;;;;5.45;5.05;;;;;;;17.38;62.18;100478.44;10589158;28;20119;-80
2022/07/24 05:44:47;;;;;;;6.07;5.53;;;;;;;17.39;62.56;100477.50;10577535;28;20067;-79
2022/07/24 05:49:48;;;;;;;4.85;4.45;;;;;;;17.80;61.34;100475.31;10543903;28;20052;-80
2022/07/24 05:54:50;;;;;;;4.15;3.70;;;;;;;18.95;57.18;100463.47;10560395;28;20032;-80
2022/07/24 05:59:52;;;;;;;4.55;4.25;;;;;;;18.77;57.22;100472.50;10561701;28;20052;-81
2022/07/24 06:04:54;;;;;;;4.32;3.92;;;;;;;19.15;56.84;100471.09;10565370;28;20032;-81
2022/07/24 06:09:55;;;;;;;3.92;3.63;;;;;;;20.05;54.49;100469.94;10560813;28;20040;-80
2022/07/24 06:14:57;;;;;;;3.65;3.42;;;;;;;20.89;52.52;100468.91;10537393;28;20105;-81
2022/07/24 06:19:58;;;;;;;3.50;3.20;;;;;;;21.55;49.96;100472.41;10556085;28;20048;-80
2022/07/24 06:25:00;;;;;;;3.30;3.00;;;;;;;22.15;47.96;100469.88;10551651;28;20040;-80
2022/07/24 06:30:03;;;;;;;3.78;3.47;;;;;;;22.41;47.13;100475.13;10549267;28;20043;-78
2022/07/24 06:35:05;;;;;;;3.08;2.88;;;;;;;22.85;47.49;100465.59;10548819;28;20109;-78
2022/07/24 06:40:07;;;;;;;3.08;2.47;;;;;;;23.42;44.15;100462.94;10531828;28;20052;-78
2022/07/24 06:45:09;;;;;;;3.47;2.70;;;;;;;23.34;44.77;100464.50;10526852;28;20032;-79
2022/07/24 06:50:12;;;;;;;3.30;3.00;;;;;;;23.50;45.49;100465.00;10583409;28;20062;-78
2022/07/24 06:55:14;;;;;;;3.72;2.95;;;;;;;23.66;44.75;100459.31;10531424;28;20044;-80
2022/07/24 07:00:16;;;;;;;3.33;2.88;;;;;;;23.62;43.69;100460.50;10530555;28;20455;-79
2022/07/24 07:05:18;;;;;;;3.70;3.03;;;;;;;24.09;43.72;100453.16;10529770;28;20040;-80
2022/07/24 07:10:20;;;;;;;2.45;2.22;;;;;;;24.07;43.14;100457.78;10547248;28;20097;-79
2022/07/24 07:15:23;;;;;;;3.17;2.58;;;;;;;24.47;42.08;100452.72;10549642;28;20044;-79
2022/07/24 07:20:32;;;;;;;2.10;1.98;;;;;;;24.45;41.85;100462.75;10547995;28;20409;-82
2022/07/24 07:25:34;;;;;;;1.77;1.60;;;;;;;25.04;40.50;100456.84;10546423;28;20068;-80
2022/07/24 07:30:35;;;;;;;1.65;1.42;;;;;;;24.58;40.06;100451.84;10546509;28;20048;-80
2022/07/24 07:35:37;;;;;;;2.33;1.20;;;;;;;24.36;40.23;100458.09;10539570;28;20043;-78
2022/07/24 07:40:38;;;;;;;2.72;1.80;;;;;;;25.51;38.28;100459.97;10566399;28;20047;-78
2022/07/24 07:45:40;;;;;;;1.55;1.35;;;;;;;25.32;38.01;100466.13;10565114;28;20387;-78
2022/07/24 07:50:42;;;;;;;1.30;1.10;;;;;;;25.55;37.32;100453.34;10549596;28;20115;-78
2022/07/24 07:55:44;;;;;;;1.10;1.00;;;;;;;25.51;36.80;100454.59;10534624;28;20040;-78
2022/07/24 08:00:45;;;;;;;1.27;1.00;;;;;;;25.23;38.33;100469.59;10516920;28;20115;-78
2022/07/24 08:05:47;;;;;;;1.25;1.13;;;;;;;25.78;37.60;100461.25;10558495;28;20461;-78
2022/07/24 08:10:49;;;;;;;2.53;1.25;;;;;;;26.14;36.15;100457.09;10534291;28;20109;-79
2022/07/24 08:15:50;;;;;;;1.27;1.10;;;;;;;26.14;36.18;100447.19;10551786;28;20044;-79
2022/07/24 08:20:52;;;;;;;2.30;1.17;;;;;;;26.18;36.40;100447.75;10517956;28;20484;-79
2022/07/24 08:25:54;;;;;;;1.45;1.00;;;;;;;26.55;36.40;100441.72;10555796;28;20453;-80
2022/07/24 08:30:55;;;;;;;1.98;1.00;;;;;;;26.34;36.43;100445.38;10539325;28;20047;-79
2022/07/24 08:35:57;;;;;;;2.20;1.10;;;;;;;26.09;36.70;100446.75;10571364;28;20040;-80
2022/07/24 08:40:59;;;;;;;1.70;0.80;;;;;;;26.93;34.76;100443.56;10574697;28;20067;-80
2022/07/24 08:46:03;;;;;;;1.98;0.90;;;;;;;26.96;35.07;100439.69;10558621;28;20036;-80
2022/07/24 08:51:05;;;;;;;2.10;1.00;;;;;;;27.21;34.50;100432.88;10536120;28;20055;-80
2022/07/24 08:56:07;;;;;;;0.98;0.82;;;;;;;28.00;32.50;100427.88;10554680;28;20044;-79
2022/07/24 09:01:09;;;;;;;1.95;0.80;;;;;;;27.95;33.49;100424.78;10553788;28;20047;-80
2022/07/24 09:06:12;;;;;;;1.58;0.70;;;;;;;27.69;33.43;100418.34;10552870;28;20048;-77
2022/07/24 09:11:20;;;;;;;1.58;0.98;;;;;;;27.70;33.54;100414.63;10555713;28;20044;-79
2022/07/24 09:16:25;;;;;;;0.98;0.77;;;;;;;26.91;33.88;100411.31;10557920;28;20044;-79
2022/07/24 09:21:27;;;;;;;1.33;0.90;;;;;;;27.80;33.49;100412.75;10538873;28;20421;-80
2022/07/24 09:26:48;;;;;;;2.08;0.88;;;;;;;27.39;34.12;100415.75;10560586;28;20063;-80
2022/07/24 09:31:59;;;;;;;1.75;0.90;;;;;;;27.17;33.57;100410.72;10560188;28;20044;-80
2022/07/24 09:37:04;;;;;;;2.85;1.00;;;;;;;27.64;32.79;100405.28;10563996;28;20044;-80
2022/07/24 09:42:06;;;;;;;0.82;0.80;;;;;;;28.48;31.81;100412.34;10560792;28;20432;-80
2022/07/24 09:47:10;;;;;;;2.58;1.10;;;;;;;28.95;31.82;100410.16;10559318;28;20047;-80
2022/07/24 09:52:16;;;;;;;1.92;1.10;;;;;;;28.96;31.39;100411.91;10570232;28;20100;-81
2022/07/24 09:57:29;;;;;;;4.63;1.23;;;;;;;28.23;32.22;100408.50;10579478;28;20069;-80
2022/07/24 10:02:33;;;;;;;2.10;1.25;;;;;;;28.70;31.82;100408.31;10567302;28;20078;-80
2022/07/24 10:07:37;;;;;;;1.58;0.98;;;;;;;28.90;31.35;100412.50;10558019;28;20054;-81
2022/07/24 10:12:39;;;;;;;1.23;1.00;;;;;;;29.21;30.65;100396.66;10557316;28;20044;-79
2022/07/24 10:17:40;;;;;;;1.08;0.80;;;;;;;29.26;30.93;100401.59;10558293;28;20044;-79
2022/07/24 10:23:01;;;;;;;1.10;1.00;;;;;;;29.40;31.17;100396.44;10555422;28;20036;-79
2022/07/24 10:28:07;;;;;;;1.35;0.98;;;;;;;29.63;29.64;100395.91;10535437;28;20050;-80
2022/07/24 10:33:09;;;;;;;1.40;0.80;;;;;;;29.81;30.87;100388.50;10554309;28;20036;-80
2022/07/24 10:38:23;;;;;;;4.03;1.00;;;;;;;29.80;30.79;100389.53;10554599;28;20040;-81
2022/07/24 10:43:24;;;;;;;0.98;0.90;;;;;;;29.66;30.14;100387.44;10554151;28;20036;-80
2022/07/24 10:48:30;;;;;;;1.67;1.08;;;;;;;30.15;30.20;100383.06;10551714;28;20074;-80
2022/07/24 10:53:35;;;;;;;0.88;0.85;;;;;;;30.43;29.50;100377.31;10575764;28;20047;-80
2022/07/24 10:58:59;;;;;;;1.70;1.00;;;;;;;30.04;29.12;100379.75;10571247;28;20050;-80
2022/07/24 11:04:22;;;;;;;1.17;1.07;;;;;;;29.08;30.68;100380.84;10556368;28;20058;-80
2022/07/24 11:09:26;;;;;;;1.13;1.00;;;;;;;29.78;29.71;100366.31;10536497;28;20044;-80
2022/07/24 11:14:37;;;;;;;1.58;1.00;;;;;;;30.05;29.28;100355.19;10554826;28;20044;-79
2022/07/24 11:19:41;;;;;;;1.50;1.10;;;;;;;30.99;28.32;100356.59;10554744;28;20119;-80
2022/07/24 11:25:12;;;;;;;1.20;1.10;;;;;;;30.56;28.38;100355.94;10555094;28;20042;-79
2022/07/24 11:30:15;;;;;;;1.35;1.00;;;;;;;30.45;27.79;100352.72;10540611;28;20056;-80
2022/07/24 11:35:26;;;;;;;3.60;1.20;;;;;;;30.47;26.85;100346.13;10537049;28;20043;-81
2022/07/24 11:40:29;;;;;;;1.60;0.80;;;;;;;30.45;27.72;100334.56;10537291;28;20151;-81
2022/07/24 11:45:30;;;;;;;1.00;0.90;;;;;;;30.48;27.84;100338.81;10556508;28;20036;-81
2022/07/24 11:50:34;;;;;;;1.42;1.00;;;;;;;30.57;27.48;100330.50;10557251;28;20070;-81
2022/07/24 11:55:36;;;;;;;2.28;1.00;;;;;;;30.66;27.81;100326.75;10555523;28;20042;-81
2022/07/24 12:00:40;;;;;;;4.20;1.13;;;;;;;31.29;25.63;100314.25;10555871;28;20044;-80
2022/07/24 12:05:42;;;;;;;2.28;1.10;;;;;;;31.08;27.21;100317.56;10554267;28;20048;-81
2022/07/24 12:10:50;;;;;;;;;;;;;;;30.77;27.96;100316.59;10555133;28;20040;-81
2022/07/24 12:15:52;;;;;;;1.30;1.20;;;;;;;30.55;27.70;100318.16;10555841;28;19927;-81
2022/07/24 12:20:59;;;;;;;1.05;1.00;;;;;;;31.09;27.40;100297.50;10557983;28;20455;-81
2022/07/24 12:26:02;;;;;;;0.88;0.80;;;;;;;31.03;27.36;100289.22;10584187;22;20454;-77
2022/07/24 12:31:10;;;;;;;1.85;1.10;;;;;;;30.79;27.32;100276.56;10558819;28;20044;-78
2022/07/24 12:36:12;;;;;;;1.60;1.10;;;;;;;30.96;26.56;100288.22;10538361;28;20040;-78
2022/07/24 12:41:17;;;;;;;1.85;1.15;;;;;;;31.35;25.81;100282.84;10553992;28;20067;-79
2022/07/24 12:46:21;;;;;;;1.30;1.17;;;;;;;31.13;26.30;100270.88;10551401;28;20110;-79
2022/07/24 12:51:25;;;;;;;1.58;0.90;;;;;;;31.41;25.98;100268.53;10530415;28;20040;-80
2022/07/24 12:56:33;;;;;;;1.25;1.10;;;;;;;31.54;25.49;100267.97;10529690;28;20040;-78
2022/07/24 13:01:52;;;;;;;1.60;0.73;;;;;;;30.90;26.47;100259.91;10529998;28;20078;-78
2022/07/24 13:06:56;;;;;;;0.88;0.88;;;;;;;30.67;26.81;100255.19;10532537;28;20044;-79
2022/07/24 13:11:58;;;;;;;0.97;0.90;;;;;;;31.64;26.64;100249.56;10554938;28;20043;-78
2022/07/24 13:17:08;;;;;;;1.67;1.20;;;;;;;31.37;26.35;100253.63;10553951;28;20062;-77
2022/07/24 13:22:10;;;;;;;1.98;1.00;;;;;;;30.79;26.45;100246.72;10541808;28;20042;-76
2022/07/24 13:27:13;;;;;;;1.98;1.00;;;;;;;30.25;27.29;100228.34;10556617;28;20036;-78
2022/07/24 13:32:15;;;;;;;3.50;1.10;;;;;;;29.64;27.47;100221.50;10554317;28;20040;-78
2022/07/24 13:37:23;;;;;;;1.92;0.98;;;;;;;29.90;27.33;100229.50;10591601;28;20020;-78
2022/07/24 13:42:26;;;;;;;1.65;0.85;;;;;;;30.54;26.00;100213.34;10557895;28;20409;-78
2022/07/24 13:47:28;;;;;;;0.90;0.90;;;;;;;30.57;26.31;100211.13;10534632;28;20048;-77
2022/07/24 13:52:29;;;;;;;0.98;0.77;;;;;;;30.50;26.77;100199.28;10552816;28;20051;-79
2022/07/24 13:57:31;;;;;;;1.63;1.10;;;;;;;30.58;26.82;100193.84;10535346;28;20048;-78
2022/07/24 14:02:33;;;;;;;2.17;1.13;;;;;;;30.39;26.72;100194.22;10540339;28;20068;-79
2022/07/24 14:07:35;;;;;;;0.80;0.80;;;;;;;30.84;25.30;100184.63;10584891;28;20048;-79
2022/07/24 14:12:36;;;;;;;2.50;1.10;;;;;;;30.41;26.35;100178.63;10579954;28;20079;-79
2022/07/24 14:17:38;;;;;;;1.40;0.90;;;;;;;30.31;26.92;100180.69;10564344;28;20111;-79
2022/07/24 14:22:42;;;;;;;0.90;0.90;;;;;;;30.17;26.92;100184.13;10570267;28;20058;-79
2022/07/24 14:27:43;;;;;;;1.08;1.00;;;;;;;30.42;26.06;100172.19;10569130;28;20116;-79
2022/07/24 14:32:45;;;;;;;1.20;1.10;;;;;;;30.43;26.35;100157.63;10541452;28;20052;-80
2022/07/24 14:37:47;;;;;;;2.60;0.93;;;;;;;30.44;26.29;100161.16;10561809;28;20040;-78
2022/07/24 14:42:50;;;;;;;0.80;0.80;;;;;;;30.48;25.72;100157.94;10584347;28;20072;-79
2022/07/24 14:47:51;;;;;;;3.40;0.85;;;;;;;30.86;25.57;100147.31;10552370;28;20405;-79
2022/07/24 14:52:53;;;;;;;1.52;0.90;;;;;;;31.48;24.39;100146.41;10552089;28;20047;-79
2022/07/24 14:57:55;;;;;;;2.15;0.90;;;;;;;30.83;25.19;100137.63;10532566;28;20058;-79
2022/07/24 15:02:56;;;;;;;1.15;0.80;;;;;;;31.02;25.45;100122.75;10554340;28;20048;-79
2022/07/24 15:07:58;;;;;;;1.48;0.80;;;;;;;30.71;26.04;100124.59;10515240;28;20048;-79
2022/07/24 15:12:59;;;;;;;0.75;0.73;;;;;;;30.69;25.57;100129.38;10550134;28;20072;-79
2022/07/24 15:18:01;;;;;;;1.70;1.00;;;;;;;31.63;24.38;100129.16;10551093;28;20036;-78
2022/07/24 15:23:03;;;;;;;6.20;1.00;;;;;;;31.52;25.30;100136.88;10551936;28;20044;-79
2022/07/24 15:28:05;;;;;;;1.58;1.00;;;;;;;30.86;25.82;100121.00;10549833;28;20085;-79
2022/07/24 15:33:07;;;;;;;2.47;0.80;;;;;;;30.96;25.48;100109.09;10532139;28;20055;-78
2022/07/24 15:38:08;;;;;;;1.88;0.85;;;;;;;31.91;24.17;100109.56;10548867;28;20051;-79
2022/07/24 15:43:10;;;;;;;1.15;0.75;;;;;;;30.84;24.86;100105.91;10572142;28;20042;-77
2022/07/24 15:48:12;;;;;;;1.15;1.00;;;;;;;30.95;24.92;100102.81;10561863;28;20051;-78
2022/07/24 15:53:13;;;;;;;0.98;0.93;;;;;;;31.17;25.42;100098.44;10549433;28;20044;-78
2022/07/24 15:58:15;;;;;;;0.80;0.80;;;;;;;30.64;25.20;100090.06;10548183;28;20040;-78
2022/07/24 16:03:17;;;;;;;1.48;0.90;;;;;;;31.25;24.94;100087.47;10550071;28;20040;-79
2022/07/24 16:08:18;;;;;;;1.83;0.70;;;;;;;31.43;24.53;100079.03;10548955;28;20501;-79
2022/07/24 16:13:20;;;;;;;1.65;0.90;;;;;;;31.43;24.43;100081.75;10530535;28;20048;-79
2022/07/24 16:18:22;;;;;;;1.27;0.70;;;;;;;30.86;25.30;100076.75;10546438;28;20059;-78
2022/07/24 16:23:24;;;;;;;1.13;0.80;;;;;;;30.57;25.72;100072.78;10546092;28;20063;-79
2022/07/24 16:28:26;;;;;;;1.73;0.82;;;;;;;30.17;26.09;100062.97;10527018;28;20040;-79
2022/07/24 16:33:27;;;;;;;1.60;0.80;;;;;;;29.74;26.41;100053.38;10546277;28;20036;-78
2022/07/24 16:38:43;;;;;;;1.38;1.15;;;;;;;29.47;26.92;100058.13;10530803;28;20040;-78
2022/07/24 16:43:44;;;;;;;1.80;1.30;;;;;;;29.04;27.16;100052.03;10536200;28;20044;-79
2022/07/24 16:48:46;;;;;;;1.00;0.90;;;;;;;29.20;27.08;100047.63;10555508;28;20048;-78
2022/07/24 16:53:48;;;;;;;2.15;0.93;;;;;;;28.92;27.01;100042.50;10536601;28;20097;-78
2022/07/24 16:58:50;;;;;;;1.60;0.90;;;;;;;28.72;27.03;100044.66;10536766;28;20049;-79
2022/07/24 17:03:51;;;;;;;1.05;0.80;;;;;;;28.84;27.90;100037.91;10554166;28;20040;-79
2022/07/24 17:08:53;;;;;;;2.08;1.98;;;;;;;29.04;27.56;100035.78;10554078;28;20044;-79
2022/07/24 17:13:55;;;;;;;1.13;0.95;;;;;;;28.81;28.04;100040.09;10534912;28;20386;-79
2022/07/24 17:18:56;;;;;;;2.88;1.08;;;;;;;28.46;27.69;100033.09;10560080;28;20189;-79
2022/07/24 17:23:58;;;;;;;1.23;1.00;;;;;;;28.33;27.96;100036.22;10544247;28;20054;-79
2022/07/24 17:28:59;;;;;;;1.10;1.00;;;;;;;28.34;28.10;100025.25;10562405;28;20054;-79
2022/07/24 17:34:01;;;;;;;2.45;1.05;;;;;;;28.13;28.40;100031.06;10546677;28;20036;-79
2022/07/24 17:39:06;;;;;;;2.25;1.85;;;;;;;28.30;28.08;100032.00;10560824;28;20036;-78
2022/07/24 17:44:08;;;;;;;1.23;1.10;;;;;;;28.19;28.59;100026.88;10561307;28;20044;-78
2022/07/24 17:49:10;;;;;;;1.77;1.30;;;;;;;28.13;28.04;100022.97;10574201;28;20083;-79
2022/07/24 17:54:15;;;;;;;1.08;1.08;;;;;;;27.98;28.51;100016.50;10554947;28;20116;-77
2022/07/24 17:59:17;;;;;;;1.20;1.10;;;;;;;27.57;29.37;100024.28;10553327;28;20040;-78
2022/07/24 18:04:19;;;;;;;1.10;0.88;;;;;;;27.49;29.35;100012.59;10555739;28;20040;-80
2022/07/24 18:09:21;;;;;;;1.35;1.17;;;;;;;27.28;29.80;100018.38;10544677;28;20048;-79
2022/07/24 18:14:22;;;;;;;1.60;0.90;;;;;;;27.17;30.15;100022.13;10575135;28;20055;-79
2022/07/24 18:19:24;;;;;;;1.27;0.90;;;;;;;27.16;29.86;100024.00;10591505;28;20055;-79
2022/07/24 18:24:25;;;;;;;1.00;0.90;;;;;;;27.02;31.28;100024.53;10560218;28;20039;-80
2022/07/24 18:29:27;;;;;;;2.03;1.30;;;;;;;26.95;32.94;100031.53;10577278;22;20048;-70
2022/07/24 18:34:29;;;;;;;1.55;1.40;;;;;;;26.64;33.95;100022.94;10527599;28;20047;-70
2022/07/24 18:39:31;;;;;;;1.67;1.20;;;;;;;26.38;34.57;100028.19;10526246;28;20447;-70
2022/07/24 18:44:34;;;;;;;1.77;1.60;;;;;;;26.19;35.64;100026.44;10547269;28;20400;-72
2022/07/24 18:49:35;;;;;;;1.98;1.35;;;;;;;25.88;36.13;100032.09;10546323;28;20047;-73
2022/07/24 18:54:37;;;;;;;2.88;1.50;;;;;;;25.83;36.33;100033.53;10545171;28;20097;-73
2022/07/24 18:59:39;;;;;;;2.33;1.48;;;;;;;25.55;36.37;100033.44;10544615;28;20565;-72
2022/07/24 19:04:41;;;;;;;3.47;1.55;;;;;;;25.32;36.24;100037.44;10543441;28;20432;-72
2022/07/24 19:09:42;;;;;;;2.05;1.30;;;;;;;25.29;36.25;100032.34;10548172;28;20465;-73
2022/07/24 19:14:44;;;;;;;1.60;1.42;;;;;;;25.06;36.58;100038.00;10544039;28;20119;-72
2022/07/24 19:19:46;;;;;;;2.75;1.52;;;;;;;24.91;36.57;100039.38;10527159;28;20447;-72
2022/07/24 19:24:48;;;;;;;3.78;1.70;;;;;;;24.96;37.10;100042.50;10525971;28;20404;-72
2022/07/24 19:30:03;;;;;;;2.20;1.67;;;;;;;24.70;37.55;100042.19;10546513;28;20059;-73
2022/07/24 19:35:05;;;;;;;2.10;1.90;;;;;;;24.44;38.20;100046.38;10525477;28;20032;-72
2022/07/24 19:40:09;;;;;;;3.13;2.17;;;;;;;24.18;39.04;100046.84;10524568;28;20539;-72
2022/07/24 19:45:11;;;;;;;6.55;2.10;;;;;;;23.82;40.63;100051.78;10526022;28;20047;-72
2022/07/24 19:50:13;;;;;;;3.03;1.90;;;;;;;23.84;40.36;100057.84;10543603;28;20412;-72
2022/07/24 19:55:16;;;;;;;2.30;2.10;;;;;;;23.59;40.60;100055.53;10525146;28;20562;-73
2022/07/24 20:00:18;;;;;;;2.47;1.58;;;;;;;23.71;40.39;100064.41;10524471;28;20044;-72
2022/07/24 20:05:19;;;;;;;3.47;2.10;;;;;;;23.33;41.31;100055.94;10541627;28;20048;-73
2022/07/24 20:10:22;;;;;;;2.33;1.90;;;;;;;23.33;41.12;100052.38;10541656;28;20054;-72
2022/07/24 20:15:24;;;;;;;2.33;2.10;;;;;;;23.14;41.24;100053.94;10541389;28;20068;-73
2022/07/24 20:20:25;;;;;;;3.10;2.10;;;;;;;23.15;41.22;100052.97;10541262;28;20040;-73
2022/07/24 20:25:27;;;;;;;4.22;1.95;;;;;;;22.86;42.07;100052.69;10540508;28;20507;-72
2022/07/24 20:30:29;;;;;;;3.92;2.40;;;;;;;22.87;41.43;100050.84;10540807;28;20048;-73
2022/07/24 20:35:31;;;;;;;2.63;2.30;;;;;;;22.71;42.68;100053.97;10543439;28;20548;-72
2022/07/24 20:40:33;;;;;;;4.53;2.47;;;;;;;22.83;42.10;100049.41;10540633;28;20493;-72
2022/07/24 20:45:35;;;;;;;2.17;1.80;;;;;;;22.83;41.96;100057.44;10539713;28;20048;-72
2022/07/24 20:50:37;;;;;;;2.20;2.00;;;;;;;22.54;42.07;100058.00;10541126;28;20044;-72
2022/07/24 20:55:39;;;;;;;2.72;2.30;;;;;;;22.70;41.91;100056.75;10541586;28;20058;-72
2022/07/24 21:00:43;;;;;;;3.72;1.80;;;;;;;22.54;42.05;100054.50;10524783;28;20044;-72
2022/07/24 21:05:44;;;;;;;4.30;1.98;;;;;;;22.55;41.75;100054.34;10540069;28;20043;-72
2022/07/24 21:10:47;;;;;;;2.10;1.90;;;;;;;22.37;42.51;100045.97;10522014;28;20075;-72
2022/07/24 21:15:48;;;;;;;2.00;1.80;;;;;;;22.05;43.59;100050.38;10525578;28;20044;-72
2022/07/24 21:20:52;;;;;;;2.85;1.98;;;;;;;21.90;44.08;100045.22;10524731;28;20051;-73
2022/07/24 21:25:53;;;;;;;3.72;1.75;;;;;;;21.97;43.72;100060.81;10521887;28;20111;-72
2022/07/24 21:30:55;;;;;;;1.73;1.63;;;;;;;21.64;44.55;100057.97;10528317;28;20048;-72
2022/07/24 21:35:57;;;;;;;2.28;1.65;;;;;;;21.42;45.70;100048.06;10528806;28;20040;-72
2022/07/24 21:41:00;;;;;;;2.20;1.75;;;;;;;21.52;44.68;100055.41;10546813;28;20048;-72
2022/07/24 21:46:02;;;;;;;7.82;1.90;;;;;;;21.32;45.57;100051.56;10545847;28;20063;-72
2022/07/24 21:51:05;;;;;;;2.33;1.98;;;;;;;21.28;46.13;100053.56;10529604;28;20075;-73
2022/07/24 21:56:07;;;;;;;2.05;1.85;;;;;;;21.06;46.26;100057.03;10527479;28;20050;-74
2022/07/24 22:01:11;;;;;;;2.25;1.90;;;;;;;21.19;46.31;100048.94;10526790;28;20394;-71
2022/07/24 22:06:13;;;;;;;2.10;1.90;;;;;;;21.07;46.30;100061.44;10548049;28;20040;-72
2022/07/24 22:11:19;;;;;;;2.80;1.98;;;;;;;21.24;46.21;100061.94;10545262;28;20044;-72
2022/07/24 22:16:21;;;;;;;2.35;2.08;;;;;;;20.81;47.26;100047.31;10528384;28;20032;-72
2022/07/24 22:21:23;;;;;;;2.10;1.90;;;;;;;20.97;47.43;100052.38;10527041;28;20499;-73
2022/07/24 22:26:24;;;;;;;3.28;1.98;;;;;;;20.83;47.47;100055.22;10527808;28;20126;-73
2022/07/24 22:31:26;;;;;;;2.63;2.00;;;;;;;20.79;48.21;100048.41;10525589;28;20106;-73
2022/07/24 22:36:33;;;;;;;2.60;1.90;;;;;;;20.74;48.18;100042.53;10543895;28;20054;-73
2022/07/24 22:41:36;;;;;;;2.00;1.80;;;;;;;20.86;47.80;100044.31;10543266;28;20443;-73
2022/07/24 22:46:40;;;;;;;2.88;1.98;;;;;;;20.71;48.29;100037.41;10543003;28;20036;-73
2022/07/24 22:51:42;;;;;;;2.88;1.80;;;;;;;20.62;48.55;100042.47;10544428;28;20048;-73
2022/07/24 22:56:44;;;;;;;2.85;2.00;;;;;;;20.37;49.28;100032.72;10524992;28;20064;-73
2022/07/24 23:01:46;;;;;;;3.17;2.30;;;;;;;20.44;48.75;100030.44;10543199;28;20052;-73
2022/07/24 23:06:48;;;;;;;2.08;1.88;;;;;;;20.00;49.74;100029.13;10524961;28;20089;-73
2022/07/24 23:11:50;;;;;;;2.42;1.67;;;;;;;20.02;50.16;100016.56;10544061;28;20111;-73